createdAt,value
2023-04-06T00:00:23.641Z,4.97
2023-04-06T00:02:50.930Z,4.90
2023-04-06T00:05:17.736Z,5.10
2023-04-06T00:07:44.566Z,5.57
2023-04-06T00:10:11.609Z,5.65
2023-04-06T00:12:38.297Z,4.63
2023-04-06T00:15:06.736Z,4.97
2023-04-06T00:17:33.538Z,4.80
2023-04-06T00:20:00.396Z,9.55
2023-04-06T00:22:27.279Z,6.47
2023-04-06T00:24:54.084Z,5.63
2023-04-06T00:27:20.974Z,5.15
2023-04-06T00:29:47.792Z,4.53
2023-04-06T00:32:14.582Z,5.32
2023-04-06T00:34:41.580Z,5.13
2023-04-06T00:37:08.375Z,4.95
2023-04-06T00:39:35.174Z,4.70
2023-04-06T00:42:08.431Z,4.90
2023-04-06T00:44:35.335Z,4.72
2023-04-06T00:47:02.148Z,5.38
2023-04-06T00:49:28.987Z,4.72
2023-04-06T00:51:55.883Z,4.68
2023-04-06T00:54:22.714Z,4.85
2023-04-06T00:56:49.510Z,5.20
2023-04-06T00:59:16.890Z,5.30
2023-04-06T01:01:43.764Z,6.28
2023-04-06T01:04:10.959Z,5.70
2023-04-06T01:06:37.797Z,5.63
2023-04-06T01:09:04.695Z,5.30
2023-04-06T01:11:32.403Z,4.68
2023-04-06T01:13:59.283Z,5.32
2023-04-06T01:16:26.210Z,5.18
2023-04-06T01:18:53.118Z,5.53
2023-04-06T01:21:20.042Z,5.35
2023-04-06T01:23:47.357Z,4.80
2023-04-06T01:26:14.647Z,5.45
2023-04-06T01:28:41.494Z,5.22
2023-04-06T01:31:09.798Z,4.65
2023-04-06T01:33:36.686Z,5.50
2023-04-06T01:36:04.797Z,6.07
2023-04-06T01:38:31.813Z,5.40
2023-04-06T01:40:59.007Z,5.80
2023-04-06T01:43:25.780Z,5.18
2023-04-06T01:45:52.628Z,5.38
2023-04-06T01:48:19.821Z,5.30
2023-04-06T01:50:46.892Z,5.63
2023-04-06T01:53:13.673Z,5.10
2023-04-06T01:55:40.513Z,5.18
2023-04-06T01:58:07.223Z,5.40
2023-04-06T02:00:34.163Z,5.25
2023-04-06T02:03:01.429Z,5.63
2023-04-06T02:05:30.866Z,5.97
2023-04-06T02:07:58.247Z,5.22
2023-04-06T02:10:25.413Z,5.38
2023-04-06T02:12:52.271Z,5.22
2023-04-06T02:15:19.025Z,4.93
2023-04-06T02:17:45.934Z,5.18
2023-04-06T02:20:13.049Z,5.35
2023-04-06T02:22:40.259Z,5.35
2023-04-06T02:25:07.555Z,5.20
2023-04-06T02:27:34.469Z,5.55
2023-04-06T02:30:01.406Z,6.65
2023-04-06T02:32:28.350Z,5.30
2023-04-06T02:34:55.330Z,6.05
2023-04-06T02:37:23.054Z,5.18
2023-04-06T02:39:49.791Z,5.68
2023-04-06T02:42:16.707Z,5.70
2023-04-06T02:44:43.912Z,5.60
2023-04-06T02:47:11.016Z,4.88
2023-04-06T02:49:37.808Z,5.20
2023-04-06T02:52:04.827Z,5.40
2023-04-06T02:54:31.595Z,5.78
2023-04-06T02:56:58.369Z,6.28
2023-04-06T02:59:25.608Z,4.93
2023-04-06T03:01:52.930Z,5.95
2023-04-06T03:04:19.752Z,5.63
2023-04-06T03:06:46.621Z,5.68
2023-04-06T03:09:15.135Z,6.38
2023-04-06T03:11:42.089Z,6.35
2023-04-06T03:14:08.914Z,5.97
2023-04-06T03:16:36.000Z,6.72
2023-04-06T03:19:02.729Z,6.15
2023-04-06T03:21:29.536Z,5.85
2023-04-06T03:23:56.360Z,5.82
2023-04-06T03:26:23.434Z,6.00
2023-04-06T03:28:50.260Z,6.75
2023-04-06T03:31:17.235Z,5.82
2023-04-06T03:33:51.386Z,6.20
2023-04-06T03:36:18.313Z,6.45
2023-04-06T03:38:45.364Z,5.70
2023-04-06T03:41:12.167Z,6.07
2023-04-06T03:43:38.960Z,6.00
2023-04-06T03:46:05.867Z,6.22
2023-04-06T03:48:32.645Z,5.13
2023-04-06T03:50:59.474Z,5.47
2023-04-06T03:53:26.251Z,5.15
2023-04-06T03:55:53.056Z,5.45
2023-04-06T03:58:19.851Z,4.90
2023-04-06T04:00:46.684Z,5.50
2023-04-06T04:03:13.570Z,6.20
2023-04-06T04:05:40.427Z,6.47
2023-04-06T04:08:07.215Z,5.93
2023-04-06T04:10:34.731Z,6.45
2023-04-06T04:13:01.454Z,5.72
2023-04-06T04:15:28.375Z,5.80
2023-04-06T04:17:55.339Z,5.93
2023-04-06T04:20:22.627Z,5.60
2023-04-06T04:22:49.576Z,5.25
2023-04-06T04:25:16.529Z,5.50
2023-04-06T04:27:43.297Z,5.63
2023-04-06T04:30:10.381Z,6.05
2023-04-06T04:32:37.560Z,5.65
2023-04-06T04:35:04.569Z,5.97
2023-04-06T04:37:31.746Z,5.75
2023-04-06T04:39:58.534Z,6.43
2023-04-06T04:42:25.348Z,6.22
2023-04-06T04:44:52.154Z,6.43
2023-04-06T04:47:19.022Z,6.10
2023-04-06T04:49:45.887Z,5.57
2023-04-06T04:52:12.708Z,5.97
2023-04-06T04:54:42.010Z,5.63
2023-04-06T04:57:08.850Z,6.60
2023-04-06T04:59:36.472Z,6.07
2023-04-06T05:02:03.435Z,6.60
2023-04-06T05:04:30.279Z,6.60
2023-04-06T05:07:08.034Z,5.78
2023-04-06T05:09:34.874Z,6.25
2023-04-06T05:12:02.281Z,7.05
2023-04-06T05:14:29.497Z,6.38
2023-04-06T05:16:56.331Z,6.25
2023-04-06T05:19:25.949Z,6.38
2023-04-06T05:21:52.855Z,6.38
2023-04-06T05:24:19.670Z,6.57
2023-04-06T05:26:46.609Z,6.68
2023-04-06T05:29:13.455Z,7.10
2023-04-06T05:31:40.413Z,6.63
2023-04-06T05:34:07.418Z,7.22
2023-04-06T05:36:34.333Z,7.63
2023-04-06T05:39:01.112Z,7.28
2023-04-06T05:41:28.080Z,7.93
2023-04-06T05:43:54.870Z,7.03
2023-04-06T05:46:21.819Z,7.00
2023-04-06T05:48:48.989Z,6.85
2023-04-06T05:51:15.913Z,6.65
2023-04-06T05:53:43.141Z,6.68
2023-04-06T05:56:10.015Z,6.35
2023-04-06T05:58:36.847Z,6.10
2023-04-06T06:01:05.673Z,5.72
2023-04-06T06:03:32.581Z,6.65
2023-04-06T06:06:05.960Z,6.32
2023-04-06T06:08:32.837Z,6.20
2023-04-06T06:10:59.701Z,6.45
2023-04-06T06:13:26.649Z,6.47
2023-04-06T06:15:53.483Z,5.50
2023-04-06T06:18:20.424Z,5.38
2023-04-06T06:20:47.257Z,5.57
2023-04-06T06:23:15.472Z,5.22
2023-04-06T06:25:42.234Z,5.20
2023-04-06T06:28:09.111Z,5.80
2023-04-06T06:30:35.992Z,5.43
2023-04-06T06:33:02.925Z,5.55
2023-04-06T06:35:29.949Z,5.30
2023-04-06T06:37:56.939Z,5.05
2023-04-06T06:40:25.136Z,4.75
2023-04-06T06:42:52.524Z,5.22
2023-04-06T06:45:19.721Z,5.30
2023-04-06T06:47:47.102Z,5.28
2023-04-06T06:50:14.117Z,5.25
2023-04-06T06:52:41.379Z,4.85
2023-04-06T06:55:09.433Z,5.10
2023-04-06T06:57:36.215Z,4.70
2023-04-06T07:00:03.623Z,4.63
2023-04-06T07:02:30.687Z,4.57
2023-04-06T07:04:57.970Z,4.85
2023-04-06T07:07:24.808Z,5.35
2023-04-06T07:09:51.629Z,4.95
2023-04-06T07:12:18.433Z,5.13
2023-04-06T07:14:45.287Z,4.60
2023-04-06T07:17:12.541Z,4.65
2023-04-06T07:19:39.460Z,5.47
2023-04-06T07:22:06.328Z,4.75
2023-04-06T07:24:33.187Z,5.07
2023-04-06T07:27:01.830Z,5.40
2023-04-06T07:29:28.853Z,5.10
2023-04-06T07:31:56.248Z,5.10
2023-04-06T07:34:23.482Z,5.07
2023-04-06T07:36:50.696Z,5.95
2023-04-06T07:39:17.513Z,5.13
2023-04-06T07:41:44.390Z,4.93
2023-04-06T07:44:11.241Z,4.93
2023-04-06T07:46:38.278Z,5.20
2023-04-06T07:49:05.374Z,5.57
2023-04-06T07:51:33.960Z,5.28
2023-04-06T07:54:03.153Z,5.50
2023-04-06T07:56:35.928Z,6.03
2023-04-06T07:59:03.930Z,6.00
2023-04-06T08:01:31.442Z,5.93
2023-04-06T08:03:58.420Z,5.25
2023-04-06T08:06:25.573Z,5.70
2023-04-06T08:08:52.475Z,5.65
2023-04-06T08:11:19.305Z,6.18
2023-04-06T08:13:46.135Z,5.72
2023-04-06T08:16:13.110Z,5.50
2023-04-06T08:18:40.084Z,6.65
2023-04-06T08:21:06.933Z,6.93
2023-04-06T08:23:33.873Z,6.60
2023-04-06T08:26:00.724Z,5.88
2023-04-06T08:28:27.668Z,6.82
2023-04-06T08:30:54.536Z,6.60
2023-04-06T08:33:21.529Z,7.03
2023-04-06T08:35:48.602Z,7.70
2023-04-06T08:38:15.520Z,6.07
2023-04-06T08:40:44.619Z,5.60
2023-04-06T08:43:16.784Z,5.30
2023-04-06T08:45:44.252Z,5.95
2023-04-06T08:48:13.440Z,5.07
2023-04-06T08:50:41.516Z,4.90
2023-04-06T08:53:09.279Z,4.78
2023-04-06T08:55:36.888Z,5.35
2023-04-06T08:58:07.707Z,5.32
2023-04-06T09:00:38.431Z,5.22
2023-04-06T09:03:07.565Z,4.53
2023-04-06T09:05:34.697Z,4.75
2023-04-06T09:08:01.588Z,4.55
2023-04-06T09:10:29.589Z,4.93
2023-04-06T09:13:09.909Z,4.90
2023-04-06T09:15:36.810Z,5.85
2023-04-06T09:18:03.638Z,4.53
2023-04-06T09:20:30.646Z,5.13
2023-04-06T09:22:57.789Z,4.70
2023-04-06T09:25:27.549Z,4.47
2023-04-06T09:28:05.491Z,4.38
2023-04-06T09:33:00.858Z,4.38
2023-04-06T09:35:28.455Z,4.70
2023-04-06T09:37:56.534Z,3.83
2023-04-06T09:40:23.630Z,3.65
2023-04-06T09:42:53.466Z,5.13
2023-04-06T09:45:21.835Z,3.85
2023-04-06T09:47:51.072Z,4.18
2023-04-06T09:50:20.683Z,4.57
2023-04-06T09:52:49.726Z,3.95
2023-04-06T09:55:27.118Z,3.40
2023-04-06T09:57:58.249Z,3.03
2023-04-06T10:00:27.318Z,2.53
2023-04-06T10:03:15.036Z,3.35
2023-04-06T10:05:47.918Z,3.58
2023-04-06T10:08:16.328Z,3.13
2023-04-06T10:10:44.129Z,3.00
2023-04-06T10:13:12.157Z,3.55
2023-04-06T10:15:43.492Z,2.88
2023-04-06T10:18:10.918Z,2.78
2023-04-06T10:20:56.809Z,2.08
2023-04-06T10:23:35.092Z,2.70
2023-04-06T10:26:05.931Z,2.90
2023-04-06T10:28:35.316Z,2.55
2023-04-06T10:31:05.878Z,2.20
2023-04-06T10:33:33.078Z,3.33
2023-04-06T10:36:14.128Z,2.60
2023-04-06T10:38:42.540Z,2.95
2023-04-06T10:41:13.118Z,2.88
2023-04-06T10:43:42.537Z,2.72
2023-04-06T10:46:12.893Z,2.78
2023-04-06T10:48:48.966Z,2.80
2023-04-06T10:51:17.262Z,3.05
2023-04-06T10:53:49.471Z,2.90
2023-04-06T10:56:18.869Z,2.90
2023-04-06T10:58:47.784Z,2.40
2023-04-06T11:01:19.485Z,2.33
2023-04-06T11:03:50.779Z,2.20
2023-04-06T11:08:49.076Z,2.08
2023-04-06T11:11:19.385Z,2.70
2023-04-06T11:13:54.412Z,2.80
2023-04-06T11:16:31.405Z,3.58
2023-04-06T11:19:03.192Z,2.97
2023-04-06T11:21:50.271Z,2.65
2023-04-06T11:24:22.582Z,3.40
2023-04-06T11:26:55.227Z,3.25
2023-04-06T11:29:27.574Z,3.20
2023-04-06T11:31:59.333Z,2.90
2023-04-06T11:34:26.945Z,3.05
2023-04-06T11:36:59.332Z,2.92
2023-04-06T11:39:28.347Z,3.20
2023-04-06T11:41:59.337Z,3.17
2023-04-06T11:44:41.180Z,3.47
2023-04-06T11:47:09.983Z,3.20
2023-04-06T11:49:46.081Z,3.13
2023-04-06T11:52:24.027Z,3.08
2023-04-06T11:54:53.384Z,3.50
2023-04-06T11:57:21.759Z,3.53
2023-04-06T11:59:48.815Z,3.90
2023-04-06T12:02:15.982Z,4.13
2023-04-06T12:04:42.916Z,3.72
2023-04-06T12:07:10.310Z,2.70
2023-04-06T12:09:41.115Z,3.97
2023-04-06T12:12:08.064Z,11.25
2023-04-06T12:14:34.853Z,4.50
2023-04-06T12:17:01.659Z,3.20
2023-04-06T12:19:29.936Z,3.80
2023-04-06T12:21:58.595Z,3.15
2023-04-06T12:24:25.878Z,3.20
2023-04-06T12:26:59.489Z,3.35
2023-04-06T12:29:30.264Z,3.13
2023-04-06T12:31:57.326Z,3.10
2023-04-06T12:34:24.338Z,2.50
2023-04-06T12:36:51.217Z,3.45
2023-04-06T12:39:21.660Z,3.53
2023-04-06T12:41:48.799Z,3.08
2023-04-06T12:44:15.722Z,2.75
2023-04-06T12:46:44.188Z,2.95
2023-04-06T12:49:11.277Z,3.17
2023-04-06T12:51:38.347Z,2.92
2023-04-06T12:54:05.321Z,2.80
2023-04-06T12:56:32.483Z,3.30
2023-04-06T12:59:00.208Z,3.00
2023-04-06T13:01:29.410Z,2.97
2023-04-06T13:04:00.574Z,3.00
2023-04-06T13:06:28.987Z,3.22
2023-04-06T13:08:56.559Z,3.05
2023-04-06T13:11:26.959Z,1.80
2023-04-06T13:16:21.907Z,2.58
2023-04-06T13:18:48.794Z,2.60
2023-04-06T13:21:17.364Z,2.97
2023-04-06T13:23:45.093Z,2.22
2023-04-06T13:26:14.406Z,2.80
2023-04-06T13:28:42.018Z,2.47
2023-04-06T13:31:10.941Z,2.80
2023-04-06T13:33:38.468Z,2.85
2023-04-06T13:36:07.974Z,2.50
2023-04-06T13:38:35.200Z,2.88
2023-04-06T13:41:02.292Z,2.83
2023-04-06T13:43:29.231Z,2.70
2023-04-06T13:45:57.069Z,2.67
2023-04-06T13:48:24.181Z,2.67
2023-04-06T13:50:51.366Z,2.60
2023-04-06T13:53:18.761Z,2.20
2023-04-06T13:55:53.793Z,2.80
2023-04-06T13:58:20.767Z,3.20
2023-04-06T14:00:47.639Z,2.92
2023-04-06T14:03:14.679Z,3.08
2023-04-06T14:05:41.653Z,2.33
2023-04-06T14:08:08.488Z,2.65
2023-04-06T14:10:43.455Z,2.80
2023-04-06T14:13:10.416Z,3.10
2023-04-06T14:15:37.228Z,2.25
2023-04-06T14:18:04.338Z,2.60
2023-04-06T14:20:34.268Z,1.70
2023-04-06T14:23:02.750Z,2.88
2023-04-06T14:25:32.421Z,2.80
2023-04-06T14:27:59.515Z,2.53
2023-04-06T14:30:26.647Z,2.60
2023-04-06T14:32:54.001Z,2.33
2023-04-06T14:35:20.818Z,1.98
2023-04-06T14:37:48.244Z,2.22
2023-04-06T14:40:15.390Z,1.90
2023-04-06T14:42:42.208Z,2.25
2023-04-06T14:45:09.374Z,2.20
2023-04-06T14:47:36.356Z,2.10
2023-04-06T14:50:03.468Z,2.63
2023-04-06T14:52:32.584Z,2.30
2023-04-06T14:54:59.836Z,1.88
2023-04-06T14:57:26.764Z,2.47
2023-04-06T14:59:55.392Z,2.35
2023-04-06T15:02:22.510Z,2.38
2023-04-06T15:04:49.462Z,1.95
2023-04-06T15:07:16.252Z,1.95
2023-04-06T15:09:43.501Z,2.38
2023-04-06T15:12:10.461Z,2.45
2023-04-06T15:14:37.514Z,2.05
2023-04-06T15:17:04.252Z,2.60
2023-04-06T15:19:31.045Z,2.28
2023-04-06T15:21:59.038Z,2.13
2023-04-06T15:24:27.065Z,1.50
2023-04-06T15:26:53.930Z,2.20
2023-04-06T15:29:21.740Z,2.40
2023-04-06T15:31:48.594Z,2.20
2023-04-06T15:34:15.622Z,2.40
2023-04-06T15:36:44.573Z,1.55
2023-04-06T15:39:11.656Z,2.22
2023-04-06T15:41:38.715Z,2.47
2023-04-06T15:44:05.759Z,2.38
2023-04-06T15:46:32.834Z,2.25
2023-04-06T15:48:59.984Z,2.40
2023-04-06T15:51:27.524Z,2.40
2023-04-06T15:53:54.364Z,2.65
2023-04-06T15:56:21.570Z,2.67
2023-04-06T15:58:48.772Z,2.33
2023-04-06T16:01:17.815Z,2.40
2023-04-06T16:03:45.385Z,2.13
2023-04-06T16:06:13.077Z,2.25
2023-04-06T16:08:41.425Z,2.78
2023-04-06T16:11:09.293Z,3.03
2023-04-06T16:13:37.044Z,3.10
2023-04-06T16:16:06.061Z,2.28
2023-04-06T16:18:35.828Z,2.45
2023-04-06T16:21:04.086Z,2.45
2023-04-06T16:23:31.255Z,2.65
2023-04-06T16:25:58.160Z,1.55
2023-04-06T16:28:25.724Z,2.10
2023-04-06T16:30:52.862Z,2.78
2023-04-06T16:33:19.880Z,2.60
2023-04-06T16:35:47.516Z,3.03
2023-04-06T16:38:15.069Z,3.10
2023-04-06T16:40:42.152Z,2.78
2023-04-06T16:43:11.324Z,3.03
2023-04-06T16:45:38.426Z,2.85
2023-04-06T16:48:09.054Z,2.75
2023-04-06T16:50:36.320Z,2.67
2023-04-06T16:53:03.267Z,2.45
2023-04-06T16:55:30.009Z,2.67
2023-04-06T16:57:57.062Z,2.67
2023-04-06T17:00:24.615Z,2.78
2023-04-06T17:02:51.588Z,2.13
2023-04-06T17:05:25.922Z,2.63
2023-04-06T17:07:53.818Z,2.30
2023-04-06T17:10:28.675Z,2.22
2023-04-06T17:13:00.403Z,2.10
2023-04-06T17:15:28.918Z,2.50
2023-04-06T17:17:55.688Z,2.05
2023-04-06T17:20:22.528Z,1.83
2023-04-06T17:22:49.642Z,2.40
2023-04-06T17:25:16.614Z,1.70
2023-04-06T17:27:44.025Z,1.67
2023-04-06T17:30:12.017Z,2.25
2023-04-06T17:32:38.964Z,1.90
2023-04-06T17:35:06.312Z,2.25
2023-04-06T17:37:33.098Z,2.17
2023-04-06T17:39:59.966Z,1.95
2023-04-06T17:42:27.501Z,2.20
2023-04-06T17:44:54.326Z,2.13
2023-04-06T17:47:21.211Z,2.05
2023-04-06T17:49:49.084Z,1.80
2023-04-06T17:52:16.036Z,1.85
2023-04-06T17:54:42.964Z,2.00
2023-04-06T17:57:09.738Z,1.95
2023-04-06T17:59:36.533Z,2.42
2023-04-06T18:02:04.262Z,2.30
2023-04-06T18:04:31.322Z,2.25
2023-04-06T18:06:58.199Z,2.33
2023-04-06T18:14:24.797Z,2.90
2023-04-06T18:16:52.165Z,3.13
2023-04-06T18:19:19.235Z,2.70
2023-04-06T18:21:46.152Z,2.63
2023-04-06T18:24:23.139Z,3.40
2023-04-06T18:26:59.597Z,2.58
2023-04-06T18:29:26.693Z,2.63
2023-04-06T18:31:55.037Z,2.65
2023-04-06T18:34:22.868Z,2.47
2023-04-06T18:36:49.630Z,2.28
2023-04-06T18:39:16.399Z,2.42
2023-04-06T18:41:43.349Z,2.25
2023-04-06T18:44:10.468Z,2.47
2023-04-06T18:46:39.149Z,2.22
2023-04-06T18:49:06.088Z,2.53
2023-04-06T18:51:33.355Z,2.20
2023-04-06T18:54:01.696Z,2.58
2023-04-06T18:56:28.701Z,2.25
2023-04-06T18:58:55.977Z,2.22
2023-04-06T19:01:25.596Z,2.45
2023-04-06T19:03:53.681Z,2.38
2023-04-06T19:06:21.514Z,2.33
2023-04-06T19:08:49.390Z,2.28
2023-04-06T19:11:16.677Z,3.05
2023-04-06T19:13:50.229Z,2.83
2023-04-06T19:16:18.152Z,3.20
2023-04-06T19:18:45.786Z,2.67
2023-04-06T19:21:23.268Z,3.13
2023-04-06T19:23:52.389Z,3.53
2023-04-06T19:26:20.039Z,3.15
2023-04-06T19:28:47.584Z,2.72
2023-04-06T19:31:16.461Z,2.78
2023-04-06T19:33:43.910Z,2.88
2023-04-06T19:36:10.890Z,3.15
2023-04-06T19:38:38.683Z,3.40
2023-04-06T19:41:05.560Z,3.42
2023-04-06T19:43:32.546Z,3.38
2023-04-06T19:45:59.544Z,3.50
2023-04-06T19:48:26.573Z,3.90
2023-04-06T19:50:57.200Z,4.30
2023-04-06T19:53:24.026Z,5.18
2023-04-06T19:55:51.511Z,4.65
2023-04-06T19:58:18.950Z,4.57
2023-04-06T20:00:46.021Z,5.95
2023-04-06T20:03:13.101Z,5.05
2023-04-06T20:05:40.204Z,5.10
2023-04-06T20:08:07.528Z,5.88
2023-04-06T20:10:34.576Z,5.55
2023-04-06T20:13:01.500Z,5.15
2023-04-06T20:15:28.704Z,5.40
2023-04-06T20:17:55.569Z,5.50
2023-04-06T20:20:22.461Z,6.20
2023-04-06T20:22:50.249Z,5.78
2023-04-06T20:25:18.411Z,5.63
2023-04-06T20:27:45.678Z,5.90
2023-04-06T20:30:16.723Z,6.70
2023-04-06T20:32:43.736Z,6.47
2023-04-06T20:35:11.044Z,6.05
2023-04-06T20:37:37.958Z,6.75
2023-04-06T20:40:05.489Z,6.03
2023-04-06T20:42:32.325Z,6.93
2023-04-06T20:44:59.475Z,6.63
2023-04-06T20:47:27.165Z,6.55
2023-04-06T20:49:54.073Z,6.40
2023-04-06T20:52:20.973Z,6.50
2023-04-06T20:54:48.532Z,6.18
2023-04-06T20:57:15.448Z,6.13
2023-04-06T20:59:42.536Z,5.78
2023-04-06T21:02:09.481Z,5.85
2023-04-06T21:04:37.369Z,6.20
2023-04-06T21:07:05.616Z,5.22
2023-04-06T21:09:38.530Z,5.60
2023-04-06T21:12:06.167Z,5.63
2023-04-06T21:14:33.322Z,6.28
2023-04-06T21:17:00.734Z,5.95
2023-04-06T21:19:27.685Z,5.68
2023-04-06T21:21:55.022Z,5.38
2023-04-06T21:24:21.797Z,5.50
2023-04-06T21:26:48.535Z,5.70
2023-04-06T21:29:15.312Z,5.32
2023-04-06T21:31:42.689Z,5.13
2023-04-06T21:34:10.773Z,6.00
2023-04-06T21:36:38.446Z,5.93
2023-04-06T21:39:06.055Z,5.47
2023-04-06T21:41:33.796Z,5.20
2023-04-06T21:44:00.776Z,5.55
2023-04-06T21:46:27.622Z,5.70
2023-04-06T21:48:54.460Z,5.28
2023-04-06T21:51:23.036Z,5.38
2023-04-06T21:53:50.264Z,5.60
2023-04-06T21:56:24.914Z,5.07
2023-04-06T21:58:53.054Z,5.85
2023-04-06T22:01:20.419Z,6.00
2023-04-06T22:03:47.510Z,5.13
2023-04-06T22:06:14.505Z,4.90
2023-04-06T22:08:41.314Z,5.35
2023-04-06T22:11:09.759Z,4.97
2023-04-06T22:13:37.804Z,5.78
2023-04-06T22:16:05.368Z,5.80
2023-04-06T22:18:32.232Z,5.03
2023-04-06T22:20:59.621Z,4.65
2023-04-06T22:23:26.508Z,4.63
2023-04-06T22:25:53.474Z,5.13
2023-04-06T22:28:20.307Z,4.90
2023-04-06T22:30:47.122Z,4.75
2023-04-06T22:33:13.993Z,5.38
2023-04-06T22:35:40.986Z,5.28
2023-04-06T22:38:07.974Z,5.55
2023-04-06T22:40:34.705Z,4.47
2023-04-06T22:43:01.472Z,5.10
2023-04-06T22:45:28.295Z,5.25
2023-04-06T22:47:55.115Z,4.80
2023-04-06T22:50:22.471Z,4.80
2023-04-06T22:52:49.380Z,4.75
2023-04-06T22:55:16.320Z,5.60
2023-04-06T22:57:43.121Z,5.22
2023-04-06T23:00:10.660Z,4.95
2023-04-06T23:02:37.792Z,5.53
2023-04-06T23:05:04.948Z,4.55
2023-04-06T23:07:32.770Z,5.32
2023-04-06T23:09:59.839Z,5.18
2023-04-06T23:12:26.636Z,5.10
2023-04-06T23:14:54.029Z,5.35
2023-04-06T23:17:20.869Z,5.43
2023-04-06T23:19:47.809Z,5.05
2023-04-06T23:22:14.614Z,4.47
2023-04-06T23:24:41.492Z,5.10
2023-04-06T23:27:08.467Z,4.78
2023-04-06T23:29:35.336Z,5.45
2023-04-06T23:32:02.205Z,5.20
2023-04-06T23:34:29.083Z,4.90
2023-04-06T23:36:55.892Z,5.63
2023-04-06T23:39:22.696Z,5.82
2023-04-06T23:41:49.444Z,4.65
2023-04-06T23:44:16.311Z,4.82
2023-04-06T23:46:43.160Z,4.75
2023-04-06T23:49:09.922Z,5.05
2023-04-06T23:51:36.648Z,5.32
2023-04-06T23:54:04.914Z,5.47
2023-04-06T23:56:31.900Z,5.25
2023-04-06T23:58:58.695Z,6.25
